createdAt,value
2022-08-31T00:03:08.334Z,99.90
2022-08-31T00:05:47.774Z,99.90
2022-08-31T00:08:25.793Z,97.30
2022-08-31T00:11:09.016Z,99.90
2022-08-31T00:13:47.946Z,99.90
2022-08-31T00:16:21.448Z,99.90
2022-08-31T00:19:01.280Z,99.40
2022-08-31T00:21:45.124Z,98.80
2022-08-31T00:24:17.787Z,99.90
2022-08-31T00:26:50.422Z,99.90
2022-08-31T00:29:26.994Z,99.90
2022-08-31T00:32:04.532Z,99.90
2022-08-31T00:34:46.347Z,99.90
2022-08-31T00:37:24.274Z,99.90
2022-08-31T00:39:59.905Z,99.90
2022-08-31T00:42:43.734Z,99.90
2022-08-31T00:45:24.549Z,99.90
2022-08-31T00:47:57.228Z,99.90
2022-08-31T00:50:27.435Z,99.90
2022-08-31T00:53:01.583Z,99.90
2022-08-31T00:55:43.378Z,99.90
2022-08-31T00:58:14.947Z,99.90
2022-08-31T01:00:52.682Z,99.90
2022-08-31T01:03:26.877Z,99.90
2022-08-31T01:06:09.056Z,99.90
2022-08-31T01:08:46.138Z,99.90
2022-08-31T01:11:20.958Z,99.90
2022-08-31T01:13:52.729Z,99.90
2022-08-31T01:16:36.540Z,99.90
2022-08-31T01:19:16.198Z,99.90
2022-08-31T01:21:55.130Z,99.90
2022-08-31T01:24:26.324Z,99.90
2022-08-31T01:27:03.451Z,99.90
2022-08-31T01:29:36.917Z,99.90
2022-08-31T01:32:08.230Z,99.90
2022-08-31T01:34:38.204Z,99.90
2022-08-31T01:37:09.925Z,99.90
2022-08-31T01:39:38.866Z,99.90
2022-08-31T01:42:06.857Z,99.90
2022-08-31T01:44:36.565Z,99.90
2022-08-31T01:47:08.109Z,99.90
2022-08-31T01:49:37.607Z,99.90
2022-08-31T01:52:09.971Z,99.90
2022-08-31T01:54:40.019Z,99.90
2022-08-31T01:57:10.987Z,99.90
2022-08-31T02:00:09.383Z,99.90
2022-08-31T02:02:45.768Z,99.90
2022-08-31T02:05:18.861Z,99.90
2022-08-31T02:07:49.971Z,99.90
2022-08-31T02:10:22.760Z,99.90
2022-08-31T02:12:53.222Z,99.90
2022-08-31T02:15:31.380Z,99.90
2022-08-31T02:18:02.872Z,99.90
2022-08-31T02:20:37.724Z,99.90
2022-08-31T02:23:05.650Z,99.90
2022-08-31T02:25:37.771Z,99.90
2022-08-31T02:28:08.589Z,99.90
2022-08-31T02:30:45.274Z,99.90
2022-08-31T02:33:21.561Z,99.90
2022-08-31T02:35:53.574Z,99.90
2022-08-31T02:38:26.646Z,99.90
2022-08-31T02:40:55.105Z,99.90
2022-08-31T02:43:25.257Z,99.90
2022-08-31T02:45:56.042Z,99.90
2022-08-31T02:48:32.983Z,99.90
2022-08-31T02:51:11.558Z,99.90
2022-08-31T02:53:41.162Z,99.90
2022-08-31T02:56:14.588Z,99.90
2022-08-31T02:58:44.578Z,99.90
2022-08-31T03:01:14.764Z,99.90
2022-08-31T03:03:46.579Z,99.90
2022-08-31T03:06:27.721Z,99.90
2022-08-31T03:09:00.810Z,99.90
2022-08-31T03:11:30.815Z,99.90
2022-08-31T03:14:04.794Z,99.90
2022-08-31T03:16:33.819Z,99.90
2022-08-31T03:19:04.112Z,99.90
2022-08-31T03:21:32.091Z,99.90
2022-08-31T03:24:03.167Z,99.90
2022-08-31T03:26:31.578Z,99.90
2022-08-31T03:29:00.151Z,99.90
2022-08-31T03:31:48.377Z,99.90
2022-08-31T03:34:17.147Z,99.90
2022-08-31T03:36:45.381Z,99.90
2022-08-31T03:39:17.038Z,99.90
2022-08-31T03:41:49.094Z,99.90
2022-08-31T03:44:22.122Z,99.90
2022-08-31T03:46:56.464Z,99.90
2022-08-31T03:49:29.384Z,99.90
2022-08-31T03:52:14.526Z,99.90
2022-08-31T03:54:50.076Z,99.90
2022-08-31T03:57:30.246Z,99.90
2022-08-31T03:59:59.254Z,99.90
2022-08-31T04:03:04.566Z,99.90
2022-08-31T04:05:45.227Z,99.90
2022-08-31T04:08:25.510Z,99.90
2022-08-31T04:11:37.174Z,99.90
2022-08-31T04:14:31.884Z,99.90
2022-08-31T04:17:24.665Z,99.90
2022-08-31T04:20:04.887Z,99.90
2022-08-31T04:22:53.252Z,81.70
2022-08-31T04:25:51.467Z,99.90
2022-08-31T04:28:36.032Z,99.90
2022-08-31T04:31:21.596Z,99.90
2022-08-31T04:36:47.915Z,99.90
2022-08-31T04:39:32.833Z,1.00
2022-08-31T04:42:06.619Z,99.90
2022-08-31T04:44:39.127Z,99.90
2022-08-31T04:47:28.141Z,99.90
2022-08-31T04:50:10.948Z,99.90
2022-08-31T04:53:05.345Z,99.90
2022-08-31T04:56:17.934Z,99.90
2022-08-31T04:58:53.001Z,99.90
2022-08-31T05:01:26.774Z,99.90
2022-08-31T05:04:10.590Z,99.90
2022-08-31T05:06:44.638Z,99.90
2022-08-31T05:09:22.026Z,99.90
2022-08-31T05:11:54.491Z,99.90
2022-08-31T05:14:30.199Z,99.90
2022-08-31T05:17:11.554Z,99.90
2022-08-31T05:20:05.322Z,99.90
2022-08-31T05:22:46.467Z,99.90
2022-08-31T05:25:19.234Z,99.90
2022-08-31T05:27:54.712Z,99.90
2022-08-31T05:30:46.833Z,99.90
2022-08-31T05:33:39.625Z,99.90
2022-08-31T05:36:14.239Z,99.90
2022-08-31T05:38:48.225Z,99.90
2022-08-31T05:44:05.842Z,99.90
2022-08-31T05:46:57.249Z,99.90
2022-08-31T05:49:45.129Z,99.90
2022-08-31T05:52:27.885Z,99.90
2022-08-31T05:55:06.747Z,99.90
2022-08-31T05:57:53.197Z,99.90
2022-08-31T06:00:38.498Z,99.90
2022-08-31T06:03:58.414Z,99.90
2022-08-31T06:06:35.988Z,99.90
2022-08-31T06:09:15.150Z,99.90
2022-08-31T06:11:54.425Z,99.90
2022-08-31T06:14:26.303Z,99.90
2022-08-31T06:17:11.027Z,99.90
2022-08-31T06:19:46.764Z,99.90
2022-08-31T06:22:32.083Z,99.90
2022-08-31T06:25:14.067Z,99.90
2022-08-31T06:27:53.460Z,99.90
2022-08-31T06:30:52.933Z,99.90
2022-08-31T06:33:30.059Z,99.90
2022-08-31T06:36:23.669Z,99.90
2022-08-31T06:39:37.358Z,99.90
2022-08-31T06:42:26.609Z,99.90
2022-08-31T06:45:18.625Z,99.90
2022-08-31T06:48:04.856Z,99.90
2022-08-31T06:50:43.499Z,99.90
2022-08-31T06:53:27.857Z,99.90
2022-08-31T06:56:22.664Z,99.90
2022-08-31T06:59:16.034Z,99.90
2022-08-31T07:02:17.667Z,99.90
2022-08-31T07:05:25.591Z,99.90
2022-08-31T07:08:00.331Z,99.90
2022-08-31T07:10:31.094Z,99.90
2022-08-31T07:13:14.034Z,99.90
2022-08-31T07:15:58.850Z,99.90
2022-08-31T07:18:38.337Z,99.90
2022-08-31T07:21:28.257Z,99.90
2022-08-31T07:24:15.889Z,99.90
2022-08-31T07:26:53.333Z,99.90
2022-08-31T07:29:42.330Z,99.90
2022-08-31T07:32:50.871Z,99.90
2022-08-31T07:35:32.302Z,99.90
2022-08-31T07:38:50.210Z,99.90
2022-08-31T07:41:53.293Z,99.90
2022-08-31T07:44:32.073Z,99.90
2022-08-31T07:47:15.276Z,99.90
2022-08-31T07:50:02.922Z,99.90
2022-08-31T07:53:03.684Z,99.90
2022-08-31T07:56:01.887Z,99.90
2022-08-31T07:58:50.343Z,99.90
2022-08-31T08:04:52.665Z,99.90
2022-08-31T08:07:45.378Z,99.90
2022-08-31T08:10:52.138Z,99.90
2022-08-31T08:13:51.191Z,99.90
2022-08-31T08:16:42.833Z,99.90
2022-08-31T08:19:36.596Z,99.90
2022-08-31T08:22:12.421Z,99.90
2022-08-31T08:25:09.785Z,99.90
2022-08-31T08:28:08.753Z,1.00
2022-08-31T08:31:02.069Z,99.90
2022-08-31T08:33:39.313Z,99.90
2022-08-31T08:36:21.014Z,99.90
2022-08-31T08:39:04.483Z,99.90
2022-08-31T08:41:45.657Z,99.90
2022-08-31T08:44:30.007Z,99.90
2022-08-31T08:47:12.841Z,99.90
2022-08-31T08:49:57.779Z,99.90
2022-08-31T08:52:40.718Z,99.90
2022-08-31T08:55:33.301Z,99.90
2022-08-31T08:58:18.317Z,99.90
2022-08-31T09:00:58.447Z,99.90
2022-08-31T09:03:47.131Z,99.90
2022-08-31T09:06:46.411Z,99.90
2022-08-31T09:09:31.597Z,99.90
2022-08-31T09:12:41.846Z,99.90
2022-08-31T09:15:40.712Z,99.90
2022-08-31T09:18:46.579Z,99.90
2022-08-31T09:21:31.193Z,99.90
2022-08-31T09:24:15.269Z,99.90
2022-08-31T09:27:24.725Z,99.90
2022-08-31T09:30:06.642Z,99.90
2022-08-31T09:32:41.484Z,99.90
2022-08-31T09:35:43.943Z,99.90
2022-08-31T09:39:20.635Z,99.90
2022-08-31T09:42:35.325Z,99.90
2022-08-31T09:45:20.070Z,99.90
2022-08-31T09:48:06.695Z,99.90
2022-08-31T09:50:49.629Z,99.90
2022-08-31T09:53:51.869Z,99.90
2022-08-31T09:56:37.297Z,99.90
2022-08-31T09:59:47.542Z,99.90
2022-08-31T10:02:47.710Z,99.90
2022-08-31T10:05:58.262Z,99.90
2022-08-31T10:08:59.009Z,99.90
2022-08-31T10:11:52.989Z,99.90
2022-08-31T10:14:50.219Z,99.90
2022-08-31T10:17:49.755Z,99.90
2022-08-31T10:20:45.325Z,99.90
2022-08-31T10:23:28.463Z,99.90
2022-08-31T10:26:10.660Z,99.90
2022-08-31T10:28:53.261Z,99.90
2022-08-31T10:31:54.984Z,99.90
2022-08-31T10:34:58.884Z,99.90
2022-08-31T10:38:41.001Z,99.90
2022-08-31T10:41:44.280Z,99.90
2022-08-31T10:44:58.327Z,99.90
2022-08-31T10:47:44.701Z,90.70
2022-08-31T10:50:46.237Z,99.90
2022-08-31T10:53:40.036Z,99.90
2022-08-31T10:56:38.015Z,93.20
2022-08-31T10:59:57.575Z,99.90
2022-08-31T11:03:36.647Z,99.90
2022-08-31T11:06:50.433Z,1.90
2022-08-31T11:09:57.271Z,1.00
2022-08-31T11:12:46.781Z,99.90
2022-08-31T11:15:55.599Z,17.60
2022-08-31T11:19:21.722Z,1.00
2022-08-31T11:22:43.024Z,99.90
2022-08-31T11:25:53.378Z,99.90
2022-08-31T11:28:42.521Z,60.10
2022-08-31T11:34:59.013Z,99.90
2022-08-31T11:38:07.018Z,99.90
2022-08-31T11:40:50.226Z,48.50
2022-08-31T11:43:55.098Z,99.90
2022-08-31T11:47:18.817Z,99.90
2022-08-31T11:50:11.849Z,99.90
2022-08-31T11:53:02.437Z,99.90
2022-08-31T11:56:13.879Z,1.00
2022-08-31T11:59:39.180Z,99.90
2022-08-31T12:02:44.640Z,1.10
2022-08-31T12:06:05.951Z,99.90
2022-08-31T12:09:14.940Z,99.90
2022-08-31T12:16:21.604Z,1.00
2022-08-31T12:20:01.057Z,99.90
2022-08-31T12:23:37.056Z,1.00
2022-08-31T12:26:40.640Z,99.90
2022-08-31T12:29:41.196Z,99.90
2022-08-31T12:32:42.540Z,99.90
2022-08-31T12:35:26.641Z,99.90
2022-08-31T12:38:14.420Z,99.90
2022-08-31T12:41:10.118Z,99.90
2022-08-31T12:43:56.328Z,42.70
2022-08-31T12:50:48.118Z,35.30
2022-08-31T12:53:46.479Z,83.50
2022-08-31T12:56:51.467Z,10.90
2022-08-31T13:04:06.573Z,3.90
2022-08-31T13:07:33.753Z,7.60
2022-08-31T13:10:18.439Z,1.00
2022-08-31T13:13:24.921Z,1.00
2022-08-31T13:16:20.513Z,12.60
2022-08-31T13:19:06.957Z,1.00
2022-08-31T13:21:51.172Z,1.00
2022-08-31T13:24:32.276Z,99.90
2022-08-31T13:27:40.163Z,99.90
2022-08-31T13:30:28.487Z,99.90
2022-08-31T13:33:35.224Z,99.90
2022-08-31T13:36:53.043Z,99.90
2022-08-31T13:39:40.324Z,99.90
2022-08-31T13:42:54.422Z,99.90
2022-08-31T13:46:00.295Z,99.90
2022-08-31T13:48:57.621Z,99.90
2022-08-31T13:52:10.285Z,99.90
2022-08-31T13:55:19.248Z,99.90
2022-08-31T13:58:54.407Z,99.90
2022-08-31T14:01:40.769Z,99.90
2022-08-31T14:04:57.233Z,99.90
2022-08-31T14:08:11.113Z,99.90
2022-08-31T14:10:50.669Z,99.90
2022-08-31T14:13:31.299Z,99.90
2022-08-31T14:16:26.600Z,99.90
2022-08-31T14:22:51.063Z,99.90
2022-08-31T14:25:30.664Z,99.90
2022-08-31T14:28:15.508Z,99.90
2022-08-31T14:31:09.613Z,99.90
2022-08-31T14:33:51.332Z,99.90
2022-08-31T14:36:45.237Z,99.90
2022-08-31T14:40:16.978Z,99.90
2022-08-31T14:42:59.809Z,99.90
2022-08-31T14:45:45.980Z,99.90
2022-08-31T14:48:37.239Z,99.90
2022-08-31T14:51:28.344Z,99.90
2022-08-31T14:54:07.368Z,99.90
2022-08-31T14:56:57.433Z,99.90
2022-08-31T14:59:31.783Z,99.90
2022-08-31T15:02:15.862Z,99.90
2022-08-31T15:04:50.748Z,99.90
2022-08-31T15:07:46.776Z,99.90
2022-08-31T15:10:34.116Z,99.90
2022-08-31T15:13:30.196Z,99.90
2022-08-31T15:17:10.547Z,1.00
2022-08-31T15:19:56.831Z,1.00
2022-08-31T15:26:18.494Z,1.00
2022-08-31T15:29:34.085Z,1.00
2022-08-31T15:35:03.462Z,1.00
2022-08-31T15:38:25.972Z,99.90
2022-08-31T15:41:04.425Z,99.90
2022-08-31T15:43:51.468Z,45.00
2022-08-31T15:46:51.772Z,99.90
2022-08-31T15:49:29.403Z,99.90
2022-08-31T15:52:26.527Z,99.90
2022-08-31T15:58:07.406Z,99.90
2022-08-31T16:00:57.103Z,1.00
2022-08-31T16:07:08.226Z,1.00
2022-08-31T16:10:15.611Z,1.00
2022-08-31T16:13:13.099Z,1.00
2022-08-31T16:15:56.848Z,1.00
2022-08-31T16:18:48.626Z,22.30
2022-08-31T16:21:41.115Z,17.10
2022-08-31T16:24:24.834Z,47.70
2022-08-31T16:27:23.178Z,1.00
2022-08-31T16:30:10.965Z,1.00
2022-08-31T16:32:52.116Z,1.00
2022-08-31T16:35:33.495Z,24.60
2022-08-31T16:42:04.944Z,70.20
2022-08-31T16:44:52.819Z,99.90
2022-08-31T16:47:44.702Z,99.90
2022-08-31T16:50:39.909Z,99.90
2022-08-31T16:53:18.808Z,99.90
2022-08-31T16:56:14.715Z,99.90
2022-08-31T16:58:53.965Z,99.90
2022-08-31T17:01:45.743Z,99.90
2022-08-31T17:04:50.516Z,99.90
2022-08-31T17:10:12.121Z,1.00
2022-08-31T17:12:58.036Z,29.20
2022-08-31T17:15:33.159Z,39.70
2022-08-31T17:18:36.737Z,1.00
2022-08-31T17:21:09.148Z,1.00
2022-08-31T17:23:55.670Z,99.90
2022-08-31T17:26:43.304Z,99.90
2022-08-31T17:29:31.640Z,99.90
2022-08-31T17:32:25.615Z,1.00
2022-08-31T17:35:20.336Z,99.90
2022-08-31T17:38:02.473Z,9.60
2022-08-31T17:40:47.178Z,51.90
2022-08-31T17:43:26.169Z,99.90
2022-08-31T17:46:28.359Z,17.80
2022-08-31T17:49:15.935Z,99.90
2022-08-31T17:51:55.570Z,1.00
2022-08-31T17:54:52.723Z,99.90
2022-08-31T18:00:27.392Z,30.20
2022-08-31T18:03:14.654Z,99.90
2022-08-31T18:06:02.065Z,99.90
2022-08-31T18:08:52.790Z,99.90
2022-08-31T18:11:27.540Z,1.00
2022-08-31T18:14:19.354Z,99.90
2022-08-31T18:17:06.430Z,99.90
2022-08-31T18:20:00.857Z,99.90
2022-08-31T18:22:44.835Z,99.90
2022-08-31T18:25:42.026Z,1.00
2022-08-31T18:28:26.840Z,1.00
2022-08-31T18:31:12.004Z,99.90
2022-08-31T18:33:56.133Z,99.90
2022-08-31T18:36:55.139Z,99.90
2022-08-31T18:40:08.307Z,99.90
2022-08-31T18:43:02.524Z,99.90
2022-08-31T18:45:50.015Z,99.90
2022-08-31T18:48:39.054Z,99.90
2022-08-31T18:51:29.017Z,99.90
2022-08-31T18:54:10.655Z,99.90
2022-08-31T18:56:52.958Z,99.90
2022-08-31T18:59:31.570Z,99.90
2022-08-31T19:02:29.215Z,99.90
2022-08-31T19:05:24.815Z,99.90
2022-08-31T19:08:15.655Z,99.90
2022-08-31T19:11:19.577Z,1.00
2022-08-31T19:14:45.115Z,1.00
2022-08-31T19:17:40.123Z,99.90
2022-08-31T19:23:41.050Z,1.00
2022-08-31T19:26:24.599Z,1.00
2022-08-31T19:29:15.443Z,1.00
2022-08-31T19:32:07.164Z,1.00
2022-08-31T19:37:51.514Z,1.00
2022-08-31T19:40:43.457Z,1.00
2022-08-31T19:43:48.433Z,1.00
2022-08-31T19:46:28.342Z,1.00
2022-08-31T19:49:21.589Z,1.00
2022-08-31T19:54:55.750Z,1.00
2022-08-31T19:57:40.562Z,1.00
2022-08-31T20:00:22.641Z,3.30
2022-08-31T20:03:09.578Z,12.80
2022-08-31T20:06:13.758Z,2.00
2022-08-31T20:11:59.856Z,3.90
2022-08-31T20:18:00.789Z,10.90
2022-08-31T20:21:22.379Z,2.50
2022-08-31T20:26:57.034Z,12.40
2022-08-31T20:29:26.805Z,3.20
2022-08-31T20:32:04.835Z,3.50
2022-08-31T20:34:34.312Z,1.00
2022-08-31T20:37:28.827Z,1.00
2022-08-31T20:40:11.336Z,1.00
2022-08-31T20:43:00.670Z,1.00
2022-08-31T20:45:49.312Z,30.90
2022-08-31T20:48:47.378Z,40.50
2022-08-31T20:51:22.868Z,33.50
2022-08-31T20:54:15.259Z,50.30
2022-08-31T20:57:11.184Z,40.00
2022-08-31T21:00:01.628Z,32.40
2022-08-31T21:02:51.794Z,44.80
2022-08-31T21:05:39.534Z,68.50
2022-08-31T21:08:19.713Z,56.60
2022-08-31T21:11:11.352Z,64.70
2022-08-31T21:13:51.939Z,68.10
2022-08-31T21:16:38.000Z,65.30
2022-08-31T21:19:23.461Z,64.00
2022-08-31T21:22:10.284Z,85.50
2022-08-31T21:25:07.405Z,73.70
2022-08-31T21:27:51.557Z,72.60
2022-08-31T21:30:34.012Z,74.10
2022-08-31T21:33:11.785Z,73.00
2022-08-31T21:36:02.103Z,84.90
2022-08-31T21:38:57.232Z,73.90
2022-08-31T21:41:29.523Z,77.40
2022-08-31T21:44:02.896Z,78.30
2022-08-31T21:46:37.427Z,74.30
2022-08-31T21:49:21.906Z,90.80
2022-08-31T21:52:04.229Z,80.90
2022-08-31T21:54:54.489Z,90.70
2022-08-31T21:57:35.898Z,80.40
2022-08-31T22:00:22.057Z,79.50
2022-08-31T22:02:58.611Z,79.00
2022-08-31T22:05:46.835Z,80.90
2022-08-31T22:08:21.428Z,82.60
2022-08-31T22:10:55.737Z,81.40
2022-08-31T22:13:34.663Z,86.10
2022-08-31T22:16:19.792Z,82.90
2022-08-31T22:19:21.959Z,89.80
2022-08-31T22:22:01.067Z,88.20
2022-08-31T22:24:43.764Z,95.50
2022-08-31T22:27:19.012Z,90.00
2022-08-31T22:29:55.586Z,87.20
2022-08-31T22:32:27.998Z,85.90
2022-08-31T22:35:10.991Z,87.10
2022-08-31T22:37:51.507Z,86.50
2022-08-31T22:40:32.517Z,87.00
2022-08-31T22:43:05.776Z,97.80
2022-08-31T22:45:51.047Z,92.80
2022-08-31T22:48:40.128Z,93.30
2022-08-31T22:51:13.453Z,94.70
2022-08-31T22:56:46.413Z,96.00
2022-08-31T22:59:37.060Z,96.10
2022-08-31T23:02:13.699Z,95.80
2022-08-31T23:04:48.882Z,96.60
2022-08-31T23:07:27.945Z,98.50
2022-08-31T23:10:01.357Z,99.90
2022-08-31T23:12:57.798Z,99.90
2022-08-31T23:15:29.573Z,99.90
2022-08-31T23:17:59.531Z,99.90
2022-08-31T23:20:35.732Z,99.90
2022-08-31T23:23:54.565Z,99.90
2022-08-31T23:26:28.517Z,99.90
2022-08-31T23:29:06.860Z,99.90
2022-08-31T23:34:28.632Z,99.90
2022-08-31T23:37:02.819Z,99.90
2022-08-31T23:39:34.756Z,99.90
2022-08-31T23:42:07.994Z,99.90
2022-08-31T23:44:43.961Z,99.90
2022-08-31T23:47:21.895Z,99.90
2022-08-31T23:49:54.662Z,99.90
2022-08-31T23:52:43.343Z,99.90
2022-08-31T23:55:16.826Z,99.90
2022-08-31T23:57:50.838Z,99.90
